Skip Navigation LinksHome page > Weather > Current weather Skip Navigation Links

Current Weather

Indira Gandhi Intl Apt, New Delhi, India

For information only: do not use for flight planning or navigation.
Latest weather
Observation time Saturday, February 13, 2016 11:30 AM IST
Local time Saturday, February 13, 2016 12:11 PM IST
Flight conditions Instrument Meteorological Conditions
Winds
Wind direction North-Northeast (30°)
Wind speed 12 mph
Wind gusting to 34 mph
Visibility 1.4 mi.
Present weather haze
Sky condition
Ceiling 10,000 ft. broken clouds
Cloud layer scattered clouds 4,000 ft.
Cloud layer broken clouds 10,000 ft.
Temperature 64°F
Dewpoint 43°F
Altimeter 30.00 in.Hg
Derived measurements
Relative humidity 45%
Density altitude 1161 ft.
METAR VIDP 130600Z 03010KT 2200 HZ SCT040 FEW040CB BKN100 18/06 Q1016 TEMPO 27020G30KT TSRA

Settings

Location code

InnerDrive.Weather 4.0.5722.1 Release CLR 4.0.30319.34209
Copyright ©2015 Inner Drive Technology. All rights reserved. Portions Copyright ©1986-2015 David Braverman.

Find weather

Site navigation


Skip Navigation Links

Place info

Page info

PayPal - The safer, easier way to pay online!

Return home.

Copyright ©2016 Inner Drive Technology. Purveyors of fine, hand-crafted computer software. Page printed 2016-02-13T06:41:19 UTC.